Time,TemperatureF,DewpointF,PressureIn,WindDirection,WindDirectionDegrees,WindSpeedMPH,WindSpeedGustMPH,Humidity,HourlyPrecipIn,Conditions,Clouds,dailyrainin,SoftwareType,DateUTC
2013-09-26 00:01:00,50.9,48.7,29.93,East,84,0.0,0.0,92,0.00,,---,0.00,VWS V14.01,2013-09-26 04:01:00,
2013-09-26 00:02:00,50.9,48.7,29.93,East,84,0.0,0.0,92,0.00,,---,0.00,VWS V14.01,2013-09-26 04:02:00,
2013-09-26 00:07:00,50.8,48.6,29.93,East,84,0.0,0.0,92,0.00,,---,0.00,VWS V14.01,2013-09-26 04:07:00,
2013-09-26 00:12:00,50.6,48.1,29.94,East,84,0.0,0.0,91,0.00,,---,0.00,VWS V14.01,2013-09-26 04:12:00,
2013-09-26 00:17:00,50.5,48.0,29.94,East,84,0.0,0.0,91,0.00,,---,0.00,VWS V14.01,2013-09-26 04:17:00,
2013-09-26 00:22:00,50.4,47.9,29.94,East,84,0.0,0.0,91,0.00,,---,0.00,VWS V14.01,2013-09-26 04:22:00,
2013-09-26 00:27:00,50.3,48.1,29.94,East,84,0.0,0.0,92,0.00,,---,0.00,VWS V14.01,2013-09-26 04:27:00,
2013-09-26 00:32:00,50.2,48.0,29.94,East,84,0.0,0.0,92,0.00,,---,0.00,VWS V14.01,2013-09-26 04:32:00,
2013-09-26 00:37:00,50.1,47.9,29.94,East,84,0.0,0.0,92,0.00,,---,0.00,VWS V14.01,2013-09-26 04:37:00,
2013-09-26 00:42:00,50.1,47.9,29.94,East,84,0.0,0.0,92,0.00,,---,0.00,VWS V14.01,2013-09-26 04:42:00,
2013-09-26 00:47:00,50.0,47.8,29.94,East,84,0.0,0.0,92,0.00,,---,0.00,VWS V14.01,2013-09-26 04:47:00,
2013-09-26 00:52:00,50.0,47.8,29.94,East,84,0.0,0.0,92,0.00,,---,0.00,VWS V14.01,2013-09-26 04:52:00,
2013-09-26 00:57:00,49.9,47.7,29.94,East,84,0.0,0.0,92,0.00,,---,0.00,VWS V14.01,2013-09-26 04:57:00,
2013-09-26 01:02:00,49.9,47.7,29.94,East,84,0.0,0.0,92,0.00,,---,0.00,VWS V14.01,2013-09-26 05:02:00,
2013-09-26 01:07:00,49.8,47.6,29.93,East,84,0.0,0.0,92,0.00,,---,0.00,VWS V14.01,2013-09-26 05:07:00,
2013-09-26 01:12:00,49.8,47.6,29.93,East,84,0.0,0.0,92,0.00,,---,0.00,VWS V14.01,2013-09-26 05:12:00,
2013-09-26 01:17:00,49.7,47.5,29.93,East,84,0.0,0.0,92,0.00,,---,0.00,VWS V14.01,2013-09-26 05:17:00,
2013-09-26 01:22:00,49.7,47.5,29.93,East,84,0.0,0.0,92,0.00,,---,0.00,VWS V14.01,2013-09-26 05:22:00,
2013-09-26 01:27:00,49.7,47.5,29.93,East,84,0.0,0.0,92,0.00,,---,0.00,VWS V14.01,2013-09-26 05:27:00,
2013-09-26 01:32:00,49.7,47.5,29.93,East,84,0.0,0.0,92,0.00,,---,0.00,VWS V14.01,2013-09-26 05:32:00,
2013-09-26 01:37:00,49.7,47.5,29.93,East,84,0.0,0.0,92,0.00,,---,0.00,VWS V14.01,2013-09-26 05:37:00,
2013-09-26 01:42:00,49.7,47.5,29.93,East,84,0.0,0.0,92,0.00,,---,0.00,VWS V14.01,2013-09-26 05:42:00,
2013-09-26 01:47:00,49.7,47.5,29.93,East,84,0.0,0.0,92,0.00,,---,0.00,VWS V14.01,2013-09-26 05:47:00,
2013-09-26 01:52:00,49.6,47.4,29.93,East,84,0.0,0.0,92,0.00,,---,0.00,VWS V14.01,2013-09-26 05:52:00,
2013-09-26 01:57:00,49.7,47.8,29.94,East,84,0.0,0.0,93,0.00,,---,0.00,VWS V14.01,2013-09-26 05:57:00,
2013-09-26 02:02:00,49.7,47.8,29.93,East,84,0.0,0.0,93,0.00,,---,0.00,VWS V14.01,2013-09-26 06:02:00,
2013-09-26 02:07:00,49.6,47.7,29.94,East,84,0.0,0.0,93,0.00,,---,0.00,VWS V14.01,2013-09-26 06:07:00,
2013-09-26 02:12:00,49.6,47.7,29.94,East,84,0.0,0.0,93,0.00,,---,0.00,VWS V14.01,2013-09-26 06:12:00,
2013-09-26 02:17:00,49.6,47.7,29.93,East,84,0.0,0.0,93,0.00,,---,0.00,VWS V14.01,2013-09-26 06:17:00,
2013-09-26 02:22:00,49.6,47.7,29.94,East,84,0.0,0.0,93,0.00,,---,0.00,VWS V14.01,2013-09-26 06:22:00,
2013-09-26 02:27:00,49.6,47.7,29.93,East,84,0.0,0.0,93,0.00,,---,0.00,VWS V14.01,2013-09-26 06:27:00,
2013-09-26 02:32:00,49.5,47.6,29.93,East,84,0.0,0.0,93,0.00,,---,0.00,VWS V14.01,2013-09-26 06:32:00,
2013-09-26 02:37:00,49.5,47.6,29.93,East,84,0.0,0.0,93,0.00,,---,0.00,VWS V14.01,2013-09-26 06:37:00,
2013-09-26 02:42:00,49.5,47.6,29.94,East,84,0.0,0.0,93,0.00,,---,0.00,VWS V14.01,2013-09-26 06:42:00,
2013-09-26 02:47:00,49.4,47.5,29.93,East,84,0.0,0.0,93,0.00,,---,0.00,VWS V14.01,2013-09-26 06:47:00,
2013-09-26 02:52:00,49.4,47.5,29.93,East,84,0.0,0.0,93,0.00,,---,0.00,VWS V14.01,2013-09-26 06:52:00,
2013-09-26 02:57:00,49.3,47.4,29.93,East,84,0.0,0.0,93,0.00,,---,0.00,VWS V14.01,2013-09-26 06:57:00,
2013-09-26 03:02:00,49.2,47.3,29.94,East,84,0.0,0.0,93,0.00,,---,0.00,VWS V14.01,2013-09-26 07:02:00,
2013-09-26 03:07:00,49.2,47.3,29.94,East,84,0.0,0.0,93,0.00,,---,0.00,VWS V14.01,2013-09-26 07:07:00,
2013-09-26 03:12:00,49.1,47.2,29.94,East,84,0.0,0.0,93,0.00,,---,0.00,VWS V14.01,2013-09-26 07:12:00,
2013-09-26 03:17:00,49.1,47.2,29.94,East,84,0.0,0.0,93,0.00,,---,0.00,VWS V14.01,2013-09-26 07:17:00,
2013-09-26 03:22:00,49.0,47.1,29.94,East,84,0.0,0.0,93,0.00,,---,0.00,VWS V14.01,2013-09-26 07:22:00,
2013-09-26 03:27:00,48.9,47.0,29.94,East,84,0.0,0.0,93,0.00,,---,0.00,VWS V14.01,2013-09-26 07:27:00,
2013-09-26 03:32:00,48.8,46.9,29.94,East,84,0.0,0.0,93,0.00,,---,0.00,VWS V14.01,2013-09-26 07:32:00,
2013-09-26 03:37:00,48.7,46.8,29.94,East,84,0.0,0.0,93,0.00,,---,0.00,VWS V14.01,2013-09-26 07:37:00,
2013-09-26 03:42:00,48.7,46.8,29.94,East,84,0.0,0.0,93,0.00,,---,0.00,VWS V14.01,2013-09-26 07:42:00,
2013-09-26 03:47:00,48.6,46.7,29.94,East,84,0.0,0.0,93,0.00,,---,0.00,VWS V14.01,2013-09-26 07:47:00,
2013-09-26 03:52:00,48.5,46.6,29.94,East,84,0.0,0.0,93,0.00,,---,0.00,VWS V14.01,2013-09-26 07:52:00,
2013-09-26 03:57:00,48.3,46.4,29.94,East,84,0.0,0.0,93,0.00,,---,0.00,VWS V14.01,2013-09-26 07:57:00,
2013-09-26 04:02:00,48.2,46.3,29.94,East,84,0.0,0.0,93,0.00,,---,0.00,VWS V14.01,2013-09-26 08:02:00,
2013-09-26 04:07:00,48.1,46.2,29.94,East,84,0.0,0.0,93,0.00,,---,0.00,VWS V14.01,2013-09-26 08:07:00,
2013-09-26 04:12:00,48.0,46.1,29.94,East,84,0.0,0.0,93,0.00,,---,0.00,VWS V14.01,2013-09-26 08:12:00,
2013-09-26 04:17:00,47.8,45.9,29.94,East,84,0.0,0.0,93,0.00,,---,0.00,VWS V14.01,2013-09-26 08:17:00,
2013-09-26 04:22:00,47.7,45.8,29.94,East,84,0.0,0.0,93,0.00,,---,0.00,VWS V14.01,2013-09-26 08:22:00,
2013-09-26 04:27:00,47.6,45.7,29.94,East,84,0.0,0.0,93,0.00,,---,0.00,VWS V14.01,2013-09-26 08:27:00,
2013-09-26 04:32:00,47.5,45.6,29.94,East,84,0.0,0.0,93,0.00,,---,0.00,VWS V14.01,2013-09-26 08:32:00,
2013-09-26 04:37:00,47.4,45.5,29.94,East,84,0.0,0.0,93,0.00,,---,0.00,VWS V14.01,2013-09-26 08:37:00,
2013-09-26 04:42:00,47.2,45.3,29.94,East,84,0.0,0.0,93,0.00,,---,0.00,VWS V14.01,2013-09-26 08:42:00,
2013-09-26 04:47:00,47.1,45.2,29.95,East,84,0.0,0.0,93,0.00,,---,0.00,VWS V14.01,2013-09-26 08:47:00,
2013-09-26 04:52:00,47.0,45.1,29.95,East,84,0.0,0.0,93,0.00,,---,0.00,VWS V14.01,2013-09-26 08:52:00,
2013-09-26 04:57:00,46.9,45.0,29.95,East,84,0.0,0.0,93,0.00,,---,0.00,VWS V14.01,2013-09-26 08:57:00,
2013-09-26 05:02:00,46.7,44.8,29.95,East,84,0.0,0.0,93,0.00,,---,0.00,VWS V14.01,2013-09-26 09:02:00,
2013-09-26 05:07:00,46.6,44.7,29.95,East,84,0.0,0.0,93,0.00,,---,0.00,VWS V14.01,2013-09-26 09:07:00,
2013-09-26 05:12:00,46.5,44.6,29.95,East,84,0.0,0.0,93,0.00,,---,0.00,VWS V14.01,2013-09-26 09:12:00,
2013-09-26 05:17:00,46.3,44.4,29.95,East,84,0.0,0.0,93,0.00,,---,0.00,VWS V14.01,2013-09-26 09:17:00,
2013-09-26 05:22:00,46.2,44.3,29.95,East,84,0.0,0.0,93,0.00,,---,0.00,VWS V14.01,2013-09-26 09:22:00,
2013-09-26 05:27:00,46.1,44.2,29.95,East,84,0.0,0.0,93,0.00,,---,0.00,VWS V14.01,2013-09-26 09:27:00,
2013-09-26 05:32:00,45.9,44.0,29.96,East,84,0.0,0.0,93,0.00,,---,0.00,VWS V14.01,2013-09-26 09:32:00,
2013-09-26 05:37:00,45.8,43.9,29.96,East,84,0.0,0.0,93,0.00,,---,0.00,VWS V14.01,2013-09-26 09:37:00,
2013-09-26 05:42:00,45.6,43.7,29.95,East,84,0.0,0.0,93,0.00,,---,0.00,VWS V14.01,2013-09-26 09:42:00,
2013-09-26 05:47:00,45.5,43.6,29.95,East,84,0.0,0.0,93,0.00,,---,0.00,VWS V14.01,2013-09-26 09:47:00,
2013-09-26 05:52:00,45.4,43.5,29.96,East,84,0.0,0.0,93,0.00,,---,0.00,VWS V14.01,2013-09-26 09:52:00,
2013-09-26 05:57:00,45.2,43.3,29.96,East,84,0.0,0.0,93,0.00,,---,0.00,VWS V14.01,2013-09-26 09:57:00,
2013-09-26 06:02:00,45.1,43.2,29.96,East,84,0.0,0.0,93,0.00,,---,0.00,VWS V14.01,2013-09-26 10:02:00,
2013-09-26 06:07:00,45.0,43.1,29.96,East,84,0.0,0.0,93,0.00,,---,0.00,VWS V14.01,2013-09-26 10:07:00,
2013-09-26 06:12:00,44.9,43.0,29.96,East,84,0.0,0.0,93,0.00,,---,0.00,VWS V14.01,2013-09-26 10:12:00,
2013-09-26 06:17:00,44.7,42.8,29.96,East,84,0.0,0.0,93,0.00,,---,0.00,VWS V14.01,2013-09-26 10:17:00,
2013-09-26 06:22:00,44.6,42.7,29.96,East,84,0.0,0.0,93,0.00,,---,0.00,VWS V14.01,2013-09-26 10:22:00,
2013-09-26 06:27:00,44.5,42.6,29.97,East,84,0.0,0.0,93,0.00,,---,0.00,VWS V14.01,2013-09-26 10:27:00,
2013-09-26 06:32:00,44.3,42.4,29.97,East,84,0.0,0.0,93,0.00,,---,0.00,VWS V14.01,2013-09-26 10:32:00,
2013-09-26 06:37:00,44.2,42.3,29.97,East,84,0.0,0.0,93,0.00,,---,0.00,VWS V14.01,2013-09-26 10:37:00,
2013-09-26 06:42:00,44.1,42.2,29.97,East,84,0.0,0.0,93,0.00,,---,0.00,VWS V14.01,2013-09-26 10:42:00,
2013-09-26 06:47:00,44.0,42.1,29.97,East,84,0.0,0.0,93,0.00,,---,0.00,VWS V14.01,2013-09-26 10:47:00,
2013-09-26 06:52:00,43.9,42.0,29.97,East,84,0.0,0.0,93,0.00,,---,0.00,VWS V14.01,2013-09-26 10:52:00,
2013-09-26 06:57:00,43.8,41.9,29.97,East,84,0.0,0.0,93,0.00,,---,0.00,VWS V14.01,2013-09-26 10:57:00,
2013-09-26 07:02:00,43.7,41.8,29.98,East,84,0.0,0.0,93,0.00,,---,0.00,VWS V14.01,2013-09-26 11:02:00,
2013-09-26 07:07:00,43.6,41.7,29.98,East,84,0.0,0.0,93,0.00,,---,0.00,VWS V14.01,2013-09-26 11:07:00,
2013-09-26 07:12:00,43.5,41.6,29.98,East,84,0.0,0.0,93,0.00,,---,0.00,VWS V14.01,2013-09-26 11:12:00,
2013-09-26 07:17:00,43.4,41.5,29.98,East,84,0.0,0.0,93,0.00,,---,0.00,VWS V14.01,2013-09-26 11:17:00,
2013-09-26 07:22:00,43.3,41.4,29.98,East,84,0.0,0.0,93,0.00,,---,0.00,VWS V14.01,2013-09-26 11:22:00,
2013-09-26 07:27:00,43.3,41.4,29.99,East,84,0.0,0.0,93,0.00,,---,0.00,VWS V14.01,2013-09-26 11:27:00,
2013-09-26 07:32:00,43.2,41.3,29.99,East,84,0.0,0.0,93,0.00,,---,0.00,VWS V14.01,2013-09-26 11:32:00,
2013-09-26 07:37:00,43.1,41.2,29.99,East,84,0.0,0.0,93,0.00,,---,0.00,VWS V14.01,2013-09-26 11:37:00,
2013-09-26 07:42:00,43.0,41.1,29.99,East,84,0.0,0.0,93,0.00,,---,0.00,VWS V14.01,2013-09-26 11:42:00,
2013-09-26 07:47:00,43.0,41.1,29.99,East,84,0.0,0.0,93,0.00,,---,0.00,VWS V14.01,2013-09-26 11:47:00,
2013-09-26 07:52:00,42.9,41.0,29.99,East,84,0.0,0.0,93,0.00,,---,0.00,VWS V14.01,2013-09-26 11:52:00,
2013-09-26 07:57:00,43.0,41.4,29.99,East,84,0.0,0.0,94,0.00,,---,0.00,VWS V14.01,2013-09-26 11:57:00,
2013-09-26 08:02:00,43.0,41.4,29.99,East,84,0.0,0.0,94,0.00,,---,0.00,VWS V14.01,2013-09-26 12:02:00,
2013-09-26 08:07:00,43.1,41.5,29.99,East,84,0.0,0.0,94,0.00,,---,0.00,VWS V14.01,2013-09-26 12:07:00,
2013-09-26 08:12:00,43.3,41.7,30.00,East,84,0.0,0.0,94,0.00,,---,0.00,VWS V14.01,2013-09-26 12:12:00,
2013-09-26 08:17:00,43.5,41.9,30.00,East,84,0.0,0.0,94,0.00,,---,0.00,VWS V14.01,2013-09-26 12:17:00,
2013-09-26 08:22:00,43.8,42.5,30.00,East,84,0.0,0.0,95,0.00,,---,0.00,VWS V14.01,2013-09-26 12:22:00,
2013-09-26 08:27:00,44.1,42.8,30.00,East,84,0.0,0.0,95,0.00,,---,0.00,VWS V14.01,2013-09-26 12:27:00,
2013-09-26 08:32:00,44.4,43.1,30.00,East,84,0.0,0.0,95,0.00,,---,0.00,VWS V14.01,2013-09-26 12:32:00,
2013-09-26 08:37:00,44.6,43.3,30.00,East,84,0.0,0.0,95,0.00,,---,0.00,VWS V14.01,2013-09-26 12:37:00,
2013-09-26 08:42:00,45.2,44.1,30.00,East,84,0.0,0.0,96,0.00,,---,0.00,VWS V14.01,2013-09-26 12:42:00,
2013-09-26 08:47:00,45.6,44.5,30.00,East,84,0.0,0.0,96,0.00,,---,0.00,VWS V14.01,2013-09-26 12:47:00,
2013-09-26 08:52:00,46.4,45.3,30.01,East,84,0.0,0.0,96,0.00,,---,0.00,VWS V14.01,2013-09-26 12:52:00,
2013-09-26 08:57:00,47.2,46.4,30.01,East,84,0.0,0.0,97,0.00,,---,0.00,VWS V14.01,2013-09-26 12:57:00,
2013-09-26 09:02:00,48.7,47.9,30.01,East,84,0.0,0.0,97,0.00,,---,0.00,VWS V14.01,2013-09-26 13:02:00,
2013-09-26 09:07:00,50.1,49.6,30.01,East,84,0.0,0.0,98,0.00,,---,0.00,VWS V14.01,2013-09-26 13:07:00,
2013-09-26 09:12:00,50.9,50.4,30.01,East,84,0.0,0.0,98,0.00,,---,0.00,VWS V14.01,2013-09-26 13:12:00,
2013-09-26 09:17:00,51.4,50.6,30.01,East,84,0.0,0.0,97,0.00,,---,0.00,VWS V14.01,2013-09-26 13:17:00,
2013-09-26 09:22:00,52.1,51.3,30.01,East,84,0.0,0.0,97,0.00,,---,0.00,VWS V14.01,2013-09-26 13:22:00,
2013-09-26 09:27:00,52.9,52.3,30.02,East,84,0.0,0.0,98,0.00,,---,0.00,VWS V14.01,2013-09-26 13:27:00,
2013-09-26 09:32:00,53.7,52.9,30.01,East,84,0.0,0.0,97,0.00,,---,0.00,VWS V14.01,2013-09-26 13:32:00,
2013-09-26 09:37:00,55.0,54.5,30.01,East,84,0.0,0.0,98,0.00,,---,0.00,VWS V14.01,2013-09-26 13:37:00,
2013-09-26 09:42:00,56.0,55.5,30.02,East,84,0.0,0.0,98,0.00,,---,0.00,VWS V14.01,2013-09-26 13:42:00,
2013-09-26 09:47:00,56.8,56.2,30.02,East,84,0.0,0.0,98,0.00,,---,0.00,VWS V14.01,2013-09-26 13:47:00,
2013-09-26 09:52:00,57.8,57.2,30.02,East,84,0.0,0.0,98,0.00,,---,0.00,VWS V14.01,2013-09-26 13:52:00,
2013-09-26 09:57:00,58.7,58.1,30.02,East,84,0.0,0.0,98,0.00,,---,0.00,VWS V14.01,2013-09-26 13:57:00,
2013-09-26 10:02:00,59.0,58.4,30.02,East,84,0.0,0.0,98,0.00,,---,0.00,VWS V14.01,2013-09-26 14:02:00,
2013-09-26 10:07:00,59.9,59.3,30.02,East,84,0.0,0.0,98,0.00,,---,0.00,VWS V14.01,2013-09-26 14:07:00,
2013-09-26 10:12:00,60.3,59.7,30.02,East,84,0.0,0.0,98,0.00,,---,0.00,VWS V14.01,2013-09-26 14:12:00,
2013-09-26 10:17:00,60.5,59.7,30.02,East,84,0.0,0.0,97,0.00,,---,0.00,VWS V14.01,2013-09-26 14:17:00,
2013-09-26 10:22:00,60.9,60.0,30.02,East,84,0.0,0.0,97,0.00,,---,0.00,VWS V14.01,2013-09-26 14:22:00,
2013-09-26 10:27:00,61.6,60.7,30.02,East,84,0.0,0.0,97,0.00,,---,0.00,VWS V14.01,2013-09-26 14:27:00,
2013-09-26 10:32:00,62.0,60.6,30.02,East,84,0.0,0.0,95,0.00,,---,0.00,VWS V14.01,2013-09-26 14:32:00,
2013-09-26 10:37:00,62.7,61.0,30.02,East,84,0.0,0.0,94,0.00,,---,0.00,VWS V14.01,2013-09-26 14:37:00,
2013-09-26 10:42:00,63.4,60.7,30.02,East,84,0.0,0.0,91,0.00,,---,0.00,VWS V14.01,2013-09-26 14:42:00,
2013-09-26 10:47:00,64.4,60.8,30.02,East,84,0.0,0.0,88,0.00,,---,0.00,VWS V14.01,2013-09-26 14:47:00,
2013-09-26 10:52:00,65.4,59.8,30.02,East,84,0.0,0.0,82,0.00,,---,0.00,VWS V14.01,2013-09-26 14:52:00,
2013-09-26 10:57:00,66.3,60.3,30.02,East,84,0.0,0.0,81,0.00,,---,0.00,VWS V14.01,2013-09-26 14:57:00,
2013-09-26 11:02:00,67.3,60.9,30.03,East,84,0.0,0.0,80,0.00,,---,0.00,VWS V14.01,2013-09-26 15:02:00,
2013-09-26 11:07:00,68.1,59.9,30.03,East,84,0.0,0.0,75,0.00,,---,0.00,VWS V14.01,2013-09-26 15:07:00,
2013-09-26 11:12:00,68.8,59.4,30.03,East,86,0.0,0.0,72,0.00,,---,0.00,VWS V14.01,2013-09-26 15:12:00,
2013-09-26 11:17:00,69.5,59.3,30.03,East,86,0.0,0.0,70,0.00,,---,0.00,VWS V14.01,2013-09-26 15:17:00,
2013-09-26 11:22:00,70.3,58.8,30.03,East,86,0.0,0.0,67,0.00,,---,0.00,VWS V14.01,2013-09-26 15:22:00,
2013-09-26 11:27:00,70.8,58.9,30.03,East,86,0.0,0.0,66,0.00,,---,0.00,VWS V14.01,2013-09-26 15:27:00,
2013-09-26 11:32:00,71.2,59.3,30.03,East,86,0.0,0.0,66,0.00,,---,0.00,VWS V14.01,2013-09-26 15:32:00,
2013-09-26 11:37:00,71.9,59.9,30.03,East,86,0.0,0.0,66,0.00,,---,0.00,VWS V14.01,2013-09-26 15:37:00,
2013-09-26 11:42:00,72.5,59.6,30.02,East,101,0.0,0.0,64,0.00,,---,0.00,VWS V14.01,2013-09-26 15:42:00,
2013-09-26 11:47:00,73.0,59.7,30.02,East,101,0.0,0.0,63,0.00,,---,0.00,VWS V14.01,2013-09-26 15:47:00,
2013-09-26 11:52:00,73.4,59.6,30.02,East,101,0.0,0.0,62,0.00,,---,0.00,VWS V14.01,2013-09-26 15:52:00,
2013-09-26 11:57:00,73.9,59.2,30.02,East,101,0.0,0.0,60,0.00,,---,0.00,VWS V14.01,2013-09-26 15:57:00,
2013-09-26 12:02:00,74.3,58.6,30.02,ESE,111,0.0,0.0,58,0.00,,---,0.00,VWS V14.01,2013-09-26 16:02:00,
2013-09-26 12:07:00,74.8,60.0,30.02,ESE,123,0.0,0.0,60,0.00,,---,0.00,VWS V14.01,2013-09-26 16:07:00,
2013-09-26 12:12:00,75.1,56.3,30.02,North,350,0.0,0.0,52,0.00,,---,0.00,VWS V14.01,2013-09-26 16:12:00,
2013-09-26 12:17:00,75.5,59.2,30.02,North,351,0.0,0.0,57,0.00,,---,0.00,VWS V14.01,2013-09-26 16:17:00,
2013-09-26 12:22:00,75.7,57.4,30.01,West,271,0.0,0.0,53,0.00,,---,0.00,VWS V14.01,2013-09-26 16:22:00,
2013-09-26 12:27:00,75.8,56.9,30.01,West,271,0.0,0.0,52,0.00,,---,0.00,VWS V14.01,2013-09-26 16:27:00,
2013-09-26 12:32:00,76.2,59.9,30.01,East,90,0.0,0.0,57,0.00,,---,0.00,VWS V14.01,2013-09-26 16:32:00,
2013-09-26 12:37:00,76.6,58.7,30.01,WNW,296,0.0,0.0,54,0.00,,---,0.00,VWS V14.01,2013-09-26 16:37:00,
2013-09-26 12:42:00,76.9,58.0,30.01,West,276,0.0,0.0,52,0.00,,---,0.00,VWS V14.01,2013-09-26 16:42:00,
2013-09-26 12:47:00,77.2,57.1,30.01,West,279,0.0,0.0,50,0.00,,---,0.00,VWS V14.01,2013-09-26 16:47:00,
2013-09-26 12:52:00,77.3,56.7,30.01,West,266,0.0,0.0,49,0.00,,---,0.00,VWS V14.01,2013-09-26 16:52:00,
2013-09-26 12:57:00,77.5,58.5,30.01,WNW,294,0.0,0.0,52,0.00,,---,0.00,VWS V14.01,2013-09-26 16:57:00,
2013-09-26 13:02:00,77.7,58.2,30.01,NNW,348,0.0,0.0,51,0.00,,---,0.00,VWS V14.01,2013-09-26 17:02:00,
2013-09-26 13:07:00,77.8,58.8,30.01,ENE,59,0.0,0.0,52,0.00,,---,0.00,VWS V14.01,2013-09-26 17:07:00,
2013-09-26 13:12:00,78.0,57.9,30.00,South,190,0.0,1.0,50,0.00,,---,0.00,VWS V14.01,2013-09-26 17:12:00,
2013-09-26 13:17:00,78.1,56.2,30.00,East,91,0.0,1.0,47,0.00,,---,0.00,VWS V14.01,2013-09-26 17:17:00,
2013-09-26 13:22:00,78.4,55.3,30.00,NNW,342,0.0,0.0,45,0.00,,---,0.00,VWS V14.01,2013-09-26 17:22:00,
2013-09-26 13:27:00,78.4,54.7,30.00,South,172,0.0,0.0,44,0.00,,---,0.00,VWS V14.01,2013-09-26 17:27:00,
2013-09-26 13:32:00,78.4,57.1,30.00,NNE,32,0.0,0.0,48,0.00,,---,0.00,VWS V14.01,2013-09-26 17:32:00,
2013-09-26 13:37:00,78.6,56.7,30.00,East,100,0.0,0.0,47,0.00,,---,0.00,VWS V14.01,2013-09-26 17:37:00,
2013-09-26 13:42:00,78.9,57.0,30.00,NNE,15,0.0,0.0,47,0.00,,---,0.00,VWS V14.01,2013-09-26 17:42:00,
2013-09-26 13:47:00,79.2,56.0,30.00,North,360,0.0,0.0,45,0.00,,---,0.00,VWS V14.01,2013-09-26 17:47:00,
2013-09-26 13:52:00,79.4,53.7,30.00,NW,322,0.0,0.0,41,0.00,,---,0.00,VWS V14.01,2013-09-26 17:52:00,
2013-09-26 13:57:00,79.4,56.2,30.00,East,95,0.0,0.0,45,0.00,,---,0.00,VWS V14.01,2013-09-26 17:57:00,
2013-09-26 14:02:00,79.3,53.6,29.99,NE,42,0.0,0.0,41,0.00,,---,0.00,VWS V14.01,2013-09-26 18:02:00,
2013-09-26 14:07:00,79.5,54.4,29.99,NW,304,0.0,0.0,42,0.00,,---,0.00,VWS V14.01,2013-09-26 18:07:00,
2013-09-26 14:12:00,80.0,56.8,29.99,NNW,332,0.0,0.0,45,0.00,,---,0.00,VWS V14.01,2013-09-26 18:12:00,
2013-09-26 14:17:00,80.3,56.4,29.99,WNW,285,0.0,0.0,44,0.00,,---,0.00,VWS V14.01,2013-09-26 18:17:00,
2013-09-26 14:22:00,80.6,54.8,29.99,ENE,57,0.0,0.0,41,0.00,,---,0.00,VWS V14.01,2013-09-26 18:22:00,
2013-09-26 14:27:00,80.8,55.6,29.99,NNE,32,0.0,0.0,42,0.00,,---,0.00,VWS V14.01,2013-09-26 18:27:00,
2013-09-26 14:32:00,81.2,56.0,29.99,North,5,0.0,0.0,42,0.00,,---,0.00,VWS V14.01,2013-09-26 18:32:00,
2013-09-26 14:37:00,81.4,56.8,29.99,WNW,293,0.0,0.0,43,0.00,,---,0.00,VWS V14.01,2013-09-26 18:37:00,
2013-09-26 14:42:00,81.6,55.6,29.99,North,355,0.0,1.0,41,0.00,,---,0.00,VWS V14.01,2013-09-26 18:42:00,
2013-09-26 14:47:00,81.5,54.2,29.99,ESE,109,0.0,0.0,39,0.00,,---,0.00,VWS V14.01,2013-09-26 18:47:00,
2013-09-26 14:52:00,81.4,55.5,29.99,East,101,0.0,0.0,41,0.00,,---,0.00,VWS V14.01,2013-09-26 18:52:00,
2013-09-26 14:57:00,81.3,53.3,29.99,NE,51,0.0,0.0,38,0.00,,---,0.00,VWS V14.01,2013-09-26 18:57:00,
2013-09-26 15:03:00,81.2,51.7,29.99,NE,49,0.0,0.0,36,0.00,,---,0.00,VWS V14.01,2013-09-26 19:03:00,
2013-09-26 15:08:00,81.1,54.5,29.99,West,269,0.0,0.0,40,0.00,,---,0.00,VWS V14.01,2013-09-26 19:08:00,
2013-09-26 15:13:00,81.2,53.9,29.99,WNW,299,0.0,0.0,39,0.00,,---,0.00,VWS V14.01,2013-09-26 19:13:00,
2013-09-26 15:18:00,81.3,54.0,29.99,NE,46,0.0,0.0,39,0.00,,---,0.00,VWS V14.01,2013-09-26 19:18:00,
2013-09-26 15:23:00,81.5,54.2,29.99,WNW,284,0.0,0.0,39,0.00,,---,0.00,VWS V14.01,2013-09-26 19:23:00,
2013-09-26 15:28:00,81.4,52.7,29.99,WNW,284,0.0,0.0,37,0.00,,---,0.00,VWS V14.01,2013-09-26 19:28:00,
2013-09-26 15:33:00,81.1,56.5,29.99,East,86,0.0,0.0,43,0.00,,---,0.00,VWS V14.01,2013-09-26 19:33:00,
2013-09-26 15:38:00,80.9,54.3,29.99,West,276,0.0,0.0,40,0.00,,---,0.00,VWS V14.01,2013-09-26 19:38:00,
2013-09-26 15:43:00,80.7,54.2,29.99,ESE,107,0.0,0.0,40,0.00,,---,0.00,VWS V14.01,2013-09-26 19:43:00,
2013-09-26 15:48:00,80.7,54.8,29.99,East,96,0.0,0.0,41,0.00,,---,0.00,VWS V14.01,2013-09-26 19:48:00,
2013-09-26 15:53:00,80.7,56.2,29.99,NW,319,0.0,0.0,43,0.00,,---,0.00,VWS V14.01,2013-09-26 19:53:00,
2013-09-26 15:58:00,80.5,55.3,29.99,ESE,110,0.0,0.0,42,0.00,,---,0.00,VWS V14.01,2013-09-26 19:58:00,
2013-09-26 16:03:00,80.1,54.3,29.99,ESE,112,0.0,0.0,41,0.00,,---,0.00,VWS V14.01,2013-09-26 20:03:00,
2013-09-26 16:08:00,79.9,54.8,29.99,NW,313,0.0,0.0,42,0.00,,---,0.00,VWS V14.01,2013-09-26 20:08:00,
2013-09-26 16:13:00,79.9,54.8,29.99,East,98,0.0,1.0,42,0.00,,---,0.00,VWS V14.01,2013-09-26 20:13:00,
2013-09-26 16:18:00,80.0,56.2,29.99,East,96,0.0,0.0,44,0.00,,---,0.00,VWS V14.01,2013-09-26 20:18:00,
2013-09-26 16:23:00,80.0,54.2,29.99,NW,313,0.0,0.0,41,0.00,,---,0.00,VWS V14.01,2013-09-26 20:23:00,
2013-09-26 16:28:00,80.1,54.3,29.99,WNW,300,0.0,0.0,41,0.00,,---,0.00,VWS V14.01,2013-09-26 20:28:00,
2013-09-26 16:33:00,80.2,52.3,29.99,SSE,150,0.0,0.0,38,0.00,,---,0.00,VWS V14.01,2013-09-26 20:33:00,
2013-09-26 16:38:00,79.9,53.5,29.99,NW,324,0.0,0.0,40,0.00,,---,0.00,VWS V14.01,2013-09-26 20:38:00,
2013-09-26 16:43:00,79.5,55.7,29.99,NNE,18,0.0,0.0,44,0.00,,---,0.00,VWS V14.01,2013-09-26 20:43:00,
2013-09-26 16:48:00,78.7,55.6,29.99,NNE,22,0.0,0.0,45,0.00,,---,0.00,VWS V14.01,2013-09-26 20:48:00,
2013-09-26 16:53:00,77.6,57.0,30.00,NNE,22,0.0,0.0,49,0.00,,---,0.00,VWS V14.01,2013-09-26 20:53:00,
2013-09-26 16:58:00,76.6,56.6,29.99,NNE,22,0.0,0.0,50,0.00,,---,0.00,VWS V14.01,2013-09-26 20:58:00,
2013-09-26 17:03:00,75.6,56.8,30.00,NNE,22,0.0,0.0,52,0.00,,---,0.00,VWS V14.01,2013-09-26 21:03:00,
2013-09-26 17:08:00,74.3,57.1,30.00,NNE,22,0.0,0.0,55,0.00,,---,0.00,VWS V14.01,2013-09-26 21:08:00,
2013-09-26 17:13:00,73.3,58.1,30.00,NNE,22,0.0,0.0,59,0.00,,---,0.00,VWS V14.01,2013-09-26 21:13:00,
2013-09-26 17:18:00,72.3,57.7,30.00,NNE,22,0.0,0.0,60,0.00,,---,0.00,VWS V14.01,2013-09-26 21:18:00,
2013-09-26 17:23:00,71.5,57.8,30.00,NNE,22,0.0,0.0,62,0.00,,---,0.00,VWS V14.01,2013-09-26 21:23:00,
2013-09-26 17:28:00,70.9,57.2,30.00,NNE,22,0.0,0.0,62,0.00,,---,0.00,VWS V14.01,2013-09-26 21:28:00,
2013-09-26 17:33:00,70.4,56.8,30.00,NNE,22,0.0,0.0,62,0.00,,---,0.00,VWS V14.01,2013-09-26 21:33:00,
2013-09-26 17:38:00,70.0,56.4,30.00,NNE,22,0.0,0.0,62,0.00,,---,0.00,VWS V14.01,2013-09-26 21:38:00,
2013-09-26 17:43:00,69.7,56.6,30.00,NNE,22,0.0,0.0,63,0.00,,---,0.00,VWS V14.01,2013-09-26 21:43:00,
2013-09-26 17:48:00,69.4,56.3,30.00,NNE,22,0.0,0.0,63,0.00,,---,0.00,VWS V14.01,2013-09-26 21:48:00,
2013-09-26 17:53:00,69.1,56.0,30.00,NNE,22,0.0,0.0,63,0.00,,---,0.00,VWS V14.01,2013-09-26 21:53:00,
2013-09-26 17:58:00,68.8,56.1,30.00,NNE,22,0.0,0.0,64,0.00,,---,0.00,VWS V14.01,2013-09-26 21:58:00,
2013-09-26 18:03:00,68.6,56.4,30.01,NNE,22,0.0,0.0,65,0.00,,---,0.00,VWS V14.01,2013-09-26 22:03:00,
2013-09-26 18:08:00,68.3,56.1,30.01,NNE,22,0.0,0.0,65,0.00,,---,0.00,VWS V14.01,2013-09-26 22:08:00,
2013-09-26 18:13:00,68.1,56.7,30.01,NNE,22,0.0,0.0,67,0.00,,---,0.00,VWS V14.01,2013-09-26 22:13:00,
2013-09-26 18:18:00,67.7,56.4,30.01,NNE,22,0.0,0.0,67,0.00,,---,0.00,VWS V14.01,2013-09-26 22:18:00,
2013-09-26 18:23:00,67.3,56.0,30.01,NNE,22,0.0,0.0,67,0.00,,---,0.00,VWS V14.01,2013-09-26 22:23:00,
2013-09-26 18:28:00,66.8,55.9,30.01,NNE,22,0.0,0.0,68,0.00,,---,0.00,VWS V14.01,2013-09-26 22:28:00,
2013-09-26 18:33:00,66.4,55.9,30.02,NNE,22,0.0,0.0,69,0.00,,---,0.00,VWS V14.01,2013-09-26 22:33:00,
2013-09-26 18:38:00,65.8,55.8,30.02,NNE,22,0.0,0.0,70,0.00,,---,0.00,VWS V14.01,2013-09-26 22:38:00,
2013-09-26 18:43:00,65.3,55.7,30.02,NNE,22,0.0,0.0,71,0.00,,---,0.00,VWS V14.01,2013-09-26 22:43:00,
2013-09-26 18:48:00,64.7,55.5,30.02,NNE,22,0.0,0.0,72,0.00,,---,0.00,VWS V14.01,2013-09-26 22:48:00,
2013-09-26 18:53:00,64.1,55.7,30.02,NNE,22,0.0,0.0,74,0.00,,---,0.00,VWS V14.01,2013-09-26 22:53:00,
2013-09-26 18:58:00,63.6,55.5,30.02,NNE,22,0.0,0.0,75,0.00,,---,0.00,VWS V14.01,2013-09-26 22:58:00,
2013-09-26 19:03:00,63.1,55.1,30.03,NNE,22,0.0,0.0,75,0.00,,---,0.00,VWS V14.01,2013-09-26 23:03:00,
2013-09-26 19:08:00,62.5,54.8,30.03,NNE,22,0.0,0.0,76,0.00,,---,0.00,VWS V14.01,2013-09-26 23:08:00,
2013-09-26 19:13:00,62.0,54.7,30.03,NNE,22,0.0,0.0,77,0.00,,---,0.00,VWS V14.01,2013-09-26 23:13:00,
2013-09-26 19:18:00,61.4,54.5,30.03,NNE,22,0.0,0.0,78,0.00,,---,0.00,VWS V14.01,2013-09-26 23:18:00,
2013-09-26 19:23:00,60.9,54.3,30.03,NNE,22,0.0,0.0,79,0.00,,---,0.00,VWS V14.01,2013-09-26 23:23:00,
2013-09-26 19:28:00,60.5,54.0,30.03,NNE,22,0.0,0.0,79,0.00,,---,0.00,VWS V14.01,2013-09-26 23:28:00,
2013-09-26 19:33:00,60.0,53.8,30.03,NNE,22,0.0,0.0,80,0.00,,---,0.00,VWS V14.01,2013-09-26 23:33:00,
2013-09-26 19:38:00,59.6,53.4,30.03,NNE,22,0.0,0.0,80,0.00,,---,0.00,VWS V14.01,2013-09-26 23:38:00,
2013-09-26 19:43:00,59.2,53.4,30.03,NNE,22,0.0,0.0,81,0.00,,---,0.00,VWS V14.01,2013-09-26 23:43:00,
2013-09-26 19:48:00,58.8,53.3,30.03,NNE,22,0.0,0.0,82,0.00,,---,0.00,VWS V14.01,2013-09-26 23:48:00,
2013-09-26 19:53:00,58.4,52.9,30.03,NNE,22,0.0,0.0,82,0.00,,---,0.00,VWS V14.01,2013-09-26 23:53:00,
2013-09-26 19:58:00,58.0,52.9,30.03,NNE,22,0.0,0.0,83,0.00,,---,0.00,VWS V14.01,2013-09-26 23:58:00,
2013-09-26 20:03:00,57.6,52.5,30.03,NNE,22,0.0,0.0,83,0.00,,---,0.00,VWS V14.01,2013-09-27 00:03:00,
2013-09-26 20:10:00,57.2,52.1,30.03,NNE,22,0.0,0.0,83,0.00,,---,0.00,VWS V14.01,2013-09-27 00:10:00,
2013-09-26 20:15:00,56.9,52.1,30.04,NNE,22,0.0,0.0,84,0.00,,---,0.00,VWS V14.01,2013-09-27 00:15:00,
2013-09-26 20:20:00,56.5,51.7,30.04,NNE,22,0.0,0.0,84,0.00,,---,0.00,VWS V14.01,2013-09-27 00:20:00,
2013-09-26 20:25:00,56.2,51.4,30.04,NNE,22,0.0,0.0,84,0.00,,---,0.00,VWS V14.01,2013-09-27 00:25:00,
2013-09-26 20:30:00,55.9,51.1,30.04,NNE,22,0.0,0.0,84,0.00,,---,0.00,VWS V14.01,2013-09-27 00:30:00,
2013-09-26 20:35:00,55.7,51.3,30.05,NNE,22,0.0,0.0,85,0.00,,---,0.00,VWS V14.01,2013-09-27 00:35:00,
2013-09-26 20:40:00,55.4,51.0,30.05,NNE,22,0.0,0.0,85,0.00,,---,0.00,VWS V14.01,2013-09-27 00:40:00,
2013-09-26 20:45:00,55.0,50.9,30.05,NNE,22,0.0,0.0,86,0.00,,---,0.00,VWS V14.01,2013-09-27 00:45:00,
2013-09-26 20:50:00,54.8,50.7,30.05,NNE,22,0.0,0.0,86,0.00,,---,0.00,VWS V14.01,2013-09-27 00:50:00,
2013-09-26 20:55:00,54.5,50.4,30.05,NNE,22,0.0,0.0,86,0.00,,---,0.00,VWS V14.01,2013-09-27 00:55:00,
2013-09-26 21:00:00,54.3,50.2,30.05,NNE,22,0.0,0.0,86,0.00,,---,0.00,VWS V14.01,2013-09-27 01:00:00,
2013-09-26 21:05:00,54.0,49.9,30.05,NNE,22,0.0,0.0,86,0.00,,---,0.00,VWS V14.01,2013-09-27 01:05:00,
2013-09-26 21:10:00,53.8,49.7,30.05,NNE,22,0.0,0.0,86,0.00,,---,0.00,VWS V14.01,2013-09-27 01:10:00,
2013-09-26 21:15:00,53.6,49.5,30.05,NNE,22,0.0,0.0,86,0.00,,---,0.00,VWS V14.01,2013-09-27 01:15:00,
2013-09-26 21:20:00,53.3,49.5,30.05,NNE,22,0.0,0.0,87,0.00,,---,0.00,VWS V14.01,2013-09-27 01:20:00,
2013-09-26 21:25:00,53.1,49.3,30.06,NNE,22,0.0,0.0,87,0.00,,---,0.00,VWS V14.01,2013-09-27 01:25:00,
2013-09-26 21:30:00,52.8,49.0,30.06,NNE,22,0.0,0.0,87,0.00,,---,0.00,VWS V14.01,2013-09-27 01:30:00,
2013-09-26 21:35:00,52.6,48.8,30.06,NNE,22,0.0,0.0,87,0.00,,---,0.00,VWS V14.01,2013-09-27 01:35:00,
2013-09-26 21:40:00,52.4,48.7,30.06,NNE,22,0.0,0.0,87,0.00,,---,0.00,VWS V14.01,2013-09-27 01:40:00,
2013-09-26 21:45:00,52.2,48.5,30.06,NNE,22,0.0,0.0,87,0.00,,---,0.00,VWS V14.01,2013-09-27 01:45:00,
2013-09-26 21:50:00,52.0,48.3,30.06,NNE,22,0.0,0.0,87,0.00,,---,0.00,VWS V14.01,2013-09-27 01:50:00,
2013-09-26 21:55:00,51.8,48.1,30.06,NNE,22,0.0,0.0,87,0.00,,---,0.00,VWS V14.01,2013-09-27 01:55:00,
2013-09-26 22:00:00,51.6,47.9,30.06,NNE,22,0.0,0.0,87,0.00,,---,0.00,VWS V14.01,2013-09-27 02:00:00,
2013-09-26 22:05:00,51.4,48.0,30.06,NNE,22,0.0,0.0,88,0.00,,---,0.00,VWS V14.01,2013-09-27 02:05:00,
2013-09-26 22:10:00,51.2,47.5,30.06,NNE,22,0.0,0.0,87,0.00,,---,0.00,VWS V14.01,2013-09-27 02:10:00,
2013-09-26 22:15:00,51.1,47.7,30.06,NNE,22,0.0,0.0,88,0.00,,---,0.00,VWS V14.01,2013-09-27 02:15:00,
2013-09-26 22:20:00,50.9,47.5,30.06,NNE,22,0.0,0.0,88,0.00,,---,0.00,VWS V14.01,2013-09-27 02:20:00,
2013-09-26 22:25:00,50.8,47.4,30.06,NNE,22,0.0,0.0,88,0.00,,---,0.00,VWS V14.01,2013-09-27 02:25:00,
2013-09-26 22:30:00,50.6,47.2,30.06,NNE,22,0.0,0.0,88,0.00,,---,0.00,VWS V14.01,2013-09-27 02:30:00,
2013-09-26 22:35:00,50.5,47.1,30.06,NNE,22,0.0,0.0,88,0.00,,---,0.00,VWS V14.01,2013-09-27 02:35:00,
2013-09-26 22:40:00,50.3,46.9,30.06,NNE,22,0.0,0.0,88,0.00,,---,0.00,VWS V14.01,2013-09-27 02:40:00,
2013-09-26 22:45:00,50.1,46.7,30.06,NNE,22,0.0,0.0,88,0.00,,---,0.00,VWS V14.01,2013-09-27 02:45:00,
2013-09-26 22:50:00,50.0,46.6,30.06,NNE,22,0.0,0.0,88,0.00,,---,0.00,VWS V14.01,2013-09-27 02:50:00,
2013-09-26 22:55:00,49.8,46.7,30.06,NNE,22,0.0,0.0,89,0.00,,---,0.00,VWS V14.01,2013-09-27 02:55:00,
2013-09-26 23:00:00,49.7,46.6,30.06,NNE,22,0.0,0.0,89,0.00,,---,0.00,VWS V14.01,2013-09-27 03:00:00,
2013-09-26 23:05:00,49.5,46.4,30.06,NNE,22,0.0,0.0,89,0.00,,---,0.00,VWS V14.01,2013-09-27 03:05:00,
2013-09-26 23:10:00,49.4,46.3,30.07,NNE,22,0.0,0.0,89,0.00,,---,0.00,VWS V14.01,2013-09-27 03:10:00,
2013-09-26 23:15:00,49.2,46.1,30.07,NNE,22,0.0,0.0,89,0.00,,---,0.00,VWS V14.01,2013-09-27 03:15:00,
2013-09-26 23:20:00,49.1,46.0,30.06,NNE,22,0.0,0.0,89,0.00,,---,0.00,VWS V14.01,2013-09-27 03:20:00,
2013-09-26 23:25:00,49.0,45.9,30.07,NNE,22,0.0,0.0,89,0.00,,---,0.00,VWS V14.01,2013-09-27 03:25:00,
2013-09-26 23:30:00,48.8,45.7,30.07,NNE,22,0.0,0.0,89,0.00,,---,0.00,VWS V14.01,2013-09-27 03:30:00,
2013-09-26 23:35:00,48.7,45.6,30.07,NNE,22,0.0,0.0,89,0.00,,---,0.00,VWS V14.01,2013-09-27 03:35:00,
2013-09-26 23:40:00,48.6,45.5,30.07,NNE,22,0.0,0.0,89,0.00,,---,0.00,VWS V14.01,2013-09-27 03:40:00,
2013-09-26 23:45:00,48.5,45.4,30.07,NNE,22,0.0,0.0,89,0.00,,---,0.00,VWS V14.01,2013-09-27 03:45:00,
2013-09-26 23:50:00,48.3,45.2,30.07,NNE,22,0.0,0.0,89,0.00,,---,0.00,VWS V14.01,2013-09-27 03:50:00,
2013-09-26 23:55:00,48.2,45.1,30.07,NNE,22,0.0,0.0,89,0.00,,---,0.00,VWS V14.01,2013-09-27 03:55:00,